sensor_id;sensor_type;location;lat;lon;timestamp;P1;durP1;ratioP1;P2;durP2;ratioP2
11598;SDS011;5855;48.840;9.188;2023-05-07T00:00:35;5.93;;;4.53;;
11598;SDS011;5855;48.840;9.188;2023-05-07T00:03:02;4.75;;;4.20;;
11598;SDS011;5855;48.840;9.188;2023-05-07T00:05:29;5.80;;;4.80;;
11598;SDS011;5855;48.840;9.188;2023-05-07T00:07:56;5.47;;;4.57;;
11598;SDS011;5855;48.840;9.188;2023-05-07T00:10:22;6.97;;;5.10;;
11598;SDS011;5855;48.840;9.188;2023-05-07T00:12:50;5.82;;;5.22;;
11598;SDS011;5855;48.840;9.188;2023-05-07T00:15:18;5.57;;;4.95;;
11598;SDS011;5855;48.840;9.188;2023-05-07T00:17:45;7.35;;;4.95;;
11598;SDS011;5855;48.840;9.188;2023-05-07T00:20:12;8.70;;;5.10;;
11598;SDS011;5855;48.840;9.188;2023-05-07T00:22:39;6.13;;;4.47;;
11598;SDS011;5855;48.840;9.188;2023-05-07T00:25:06;5.22;;;4.38;;
11598;SDS011;5855;48.840;9.188;2023-05-07T00:27:33;5.13;;;4.53;;
11598;SDS011;5855;48.840;9.188;2023-05-07T00:30:00;4.95;;;4.13;;
11598;SDS011;5855;48.840;9.188;2023-05-07T00:32:28;7.57;;;5.50;;
11598;SDS011;5855;48.840;9.188;2023-05-07T00:34:54;6.22;;;5.20;;
11598;SDS011;5855;48.840;9.188;2023-05-07T00:37:21;5.00;;;4.50;;
11598;SDS011;5855;48.840;9.188;2023-05-07T00:39:48;5.13;;;4.20;;
11598;SDS011;5855;48.840;9.188;2023-05-07T00:42:15;6.18;;;4.63;;
11598;SDS011;5855;48.840;9.188;2023-05-07T00:44:42;6.18;;;4.88;;
11598;SDS011;5855;48.840;9.188;2023-05-07T00:47:08;6.43;;;4.85;;
11598;SDS011;5855;48.840;9.188;2023-05-07T00:49:39;5.68;;;4.65;;
11598;SDS011;5855;48.840;9.188;2023-05-07T00:52:07;4.95;;;4.13;;
11598;SDS011;5855;48.840;9.188;2023-05-07T00:54:37;4.88;;;4.32;;
11598;SDS011;5855;48.840;9.188;2023-05-07T00:57:04;5.30;;;4.40;;
11598;SDS011;5855;48.840;9.188;2023-05-07T00:59:32;4.85;;;3.67;;
11598;SDS011;5855;48.840;9.188;2023-05-07T01:01:59;5.03;;;4.38;;
11598;SDS011;5855;48.840;9.188;2023-05-07T01:04:26;4.50;;;3.97;;
11598;SDS011;5855;48.840;9.188;2023-05-07T01:06:55;5.32;;;3.97;;
11598;SDS011;5855;48.840;9.188;2023-05-07T01:09:23;4.18;;;3.50;;
11598;SDS011;5855;48.840;9.188;2023-05-07T01:11:50;4.82;;;3.28;;
11598;SDS011;5855;48.840;9.188;2023-05-07T01:14:18;4.28;;;3.55;;
11598;SDS011;5855;48.840;9.188;2023-05-07T01:16:46;5.20;;;4.30;;
11598;SDS011;5855;48.840;9.188;2023-05-07T01:19:13;5.40;;;4.70;;
11598;SDS011;5855;48.840;9.188;2023-05-07T01:21:45;7.00;;;5.45;;
11598;SDS011;5855;48.840;9.188;2023-05-07T01:24:15;9.55;;;4.97;;
11598;SDS011;5855;48.840;9.188;2023-05-07T01:26:42;5.80;;;5.20;;
11598;SDS011;5855;48.840;9.188;2023-05-07T01:29:09;8.00;;;5.18;;
11598;SDS011;5855;48.840;9.188;2023-05-07T01:31:36;6.25;;;4.90;;
11598;SDS011;5855;48.840;9.188;2023-05-07T01:34:05;6.57;;;4.70;;
11598;SDS011;5855;48.840;9.188;2023-05-07T01:36:34;4.95;;;4.18;;
11598;SDS011;5855;48.840;9.188;2023-05-07T01:39:02;4.68;;;3.83;;
11598;SDS011;5855;48.840;9.188;2023-05-07T01:41:32;4.30;;;3.70;;
11598;SDS011;5855;48.840;9.188;2023-05-07T01:43:59;4.78;;;3.75;;
11598;SDS011;5855;48.840;9.188;2023-05-07T01:46:27;7.38;;;5.18;;
11598;SDS011;5855;48.840;9.188;2023-05-07T01:48:54;5.80;;;4.88;;
11598;SDS011;5855;48.840;9.188;2023-05-07T01:51:21;5.95;;;4.32;;
11598;SDS011;5855;48.840;9.188;2023-05-07T01:53:48;5.90;;;4.85;;
11598;SDS011;5855;48.840;9.188;2023-05-07T01:56:16;4.85;;;4.35;;
11598;SDS011;5855;48.840;9.188;2023-05-07T01:58:45;5.00;;;4.53;;
11598;SDS011;5855;48.840;9.188;2023-05-07T02:01:12;5.68;;;4.70;;
11598;SDS011;5855;48.840;9.188;2023-05-07T02:03:40;4.97;;;4.47;;
11598;SDS011;5855;48.840;9.188;2023-05-07T02:06:06;5.70;;;4.53;;
11598;SDS011;5855;48.840;9.188;2023-05-07T02:08:33;6.05;;;4.13;;
11598;SDS011;5855;48.840;9.188;2023-05-07T02:11:00;4.93;;;4.25;;
11598;SDS011;5855;48.840;9.188;2023-05-07T02:13:28;5.35;;;4.20;;
11598;SDS011;5855;48.840;9.188;2023-05-07T02:15:57;6.13;;;4.20;;
11598;SDS011;5855;48.840;9.188;2023-05-07T02:18:24;5.07;;;4.22;;
11598;SDS011;5855;48.840;9.188;2023-05-07T02:20:51;4.68;;;3.90;;
11598;SDS011;5855;48.840;9.188;2023-05-07T02:23:18;4.60;;;4.20;;
11598;SDS011;5855;48.840;9.188;2023-05-07T02:25:45;4.65;;;4.05;;
11598;SDS011;5855;48.840;9.188;2023-05-07T02:28:12;4.50;;;4.03;;
11598;SDS011;5855;48.840;9.188;2023-05-07T02:30:39;4.47;;;3.67;;
11598;SDS011;5855;48.840;9.188;2023-05-07T02:33:07;4.88;;;3.92;;
11598;SDS011;5855;48.840;9.188;2023-05-07T02:35:34;4.85;;;4.25;;
11598;SDS011;5855;48.840;9.188;2023-05-07T02:38:01;3.97;;;3.58;;
11598;SDS011;5855;48.840;9.188;2023-05-07T02:40:28;4.10;;;3.78;;
11598;SDS011;5855;48.840;9.188;2023-05-07T02:42:58;4.07;;;3.60;;
11598;SDS011;5855;48.840;9.188;2023-05-07T02:45:25;5.03;;;3.88;;
11598;SDS011;5855;48.840;9.188;2023-05-07T02:47:52;6.97;;;4.18;;
11598;SDS011;5855;48.840;9.188;2023-05-07T02:50:20;5.78;;;4.07;;
11598;SDS011;5855;48.840;9.188;2023-05-07T02:52:47;4.80;;;3.90;;
11598;SDS011;5855;48.840;9.188;2023-05-07T02:55:13;4.88;;;3.70;;
11598;SDS011;5855;48.840;9.188;2023-05-07T02:57:41;5.63;;;3.95;;
11598;SDS011;5855;48.840;9.188;2023-05-07T03:00:11;6.05;;;3.85;;
11598;SDS011;5855;48.840;9.188;2023-05-07T03:02:39;5.50;;;4.00;;
11598;SDS011;5855;48.840;9.188;2023-05-07T03:05:06;6.43;;;4.22;;
11598;SDS011;5855;48.840;9.188;2023-05-07T03:07:35;7.45;;;4.50;;
11598;SDS011;5855;48.840;9.188;2023-05-07T03:10:02;5.50;;;4.85;;
11598;SDS011;5855;48.840;9.188;2023-05-07T03:12:29;5.78;;;4.38;;
11598;SDS011;5855;48.840;9.188;2023-05-07T03:14:56;4.53;;;4.13;;
11598;SDS011;5855;48.840;9.188;2023-05-07T03:17:23;5.28;;;4.40;;
11598;SDS011;5855;48.840;9.188;2023-05-07T03:19:49;4.80;;;4.07;;
11598;SDS011;5855;48.840;9.188;2023-05-07T03:22:16;5.32;;;4.60;;
11598;SDS011;5855;48.840;9.188;2023-05-07T03:24:44;4.97;;;4.30;;
11598;SDS011;5855;48.840;9.188;2023-05-07T03:27:11;4.97;;;4.50;;
11598;SDS011;5855;48.840;9.188;2023-05-07T03:29:38;4.85;;;4.40;;
11598;SDS011;5855;48.840;9.188;2023-05-07T03:32:05;4.80;;;4.22;;
11598;SDS011;5855;48.840;9.188;2023-05-07T03:34:31;4.53;;;4.13;;
11598;SDS011;5855;48.840;9.188;2023-05-07T03:36:58;5.38;;;4.70;;
11598;SDS011;5855;48.840;9.188;2023-05-07T03:39:26;4.88;;;4.38;;
11598;SDS011;5855;48.840;9.188;2023-05-07T03:41:54;6.78;;;4.80;;
11598;SDS011;5855;48.840;9.188;2023-05-07T03:44:21;4.95;;;4.28;;
11598;SDS011;5855;48.840;9.188;2023-05-07T03:46:48;5.03;;;4.53;;
11598;SDS011;5855;48.840;9.188;2023-05-07T03:49:14;5.45;;;4.95;;
11598;SDS011;5855;48.840;9.188;2023-05-07T03:51:41;4.40;;;4.00;;
11598;SDS011;5855;48.840;9.188;2023-05-07T03:54:08;5.82;;;4.53;;
11598;SDS011;5855;48.840;9.188;2023-05-07T03:56:35;6.75;;;5.20;;
11598;SDS011;5855;48.840;9.188;2023-05-07T03:59:03;5.10;;;4.70;;
11598;SDS011;5855;48.840;9.188;2023-05-07T04:01:30;5.00;;;4.50;;
11598;SDS011;5855;48.840;9.188;2023-05-07T04:03:57;6.88;;;4.90;;
11598;SDS011;5855;48.840;9.188;2023-05-07T04:06:24;5.63;;;4.70;;
11598;SDS011;5855;48.840;9.188;2023-05-07T04:08:50;5.10;;;4.30;;
11598;SDS011;5855;48.840;9.188;2023-05-07T04:11:17;6.55;;;4.88;;
11598;SDS011;5855;48.840;9.188;2023-05-07T04:13:45;5.20;;;4.53;;
11598;SDS011;5855;48.840;9.188;2023-05-07T04:16:13;5.07;;;4.55;;
11598;SDS011;5855;48.840;9.188;2023-05-07T04:18:40;5.63;;;4.30;;
11598;SDS011;5855;48.840;9.188;2023-05-07T04:21:13;4.80;;;4.18;;
11598;SDS011;5855;48.840;9.188;2023-05-07T04:23:40;5.88;;;4.60;;
11598;SDS011;5855;48.840;9.188;2023-05-07T04:26:07;6.50;;;4.63;;
11598;SDS011;5855;48.840;9.188;2023-05-07T04:28:34;5.30;;;4.68;;
11598;SDS011;5855;48.840;9.188;2023-05-07T04:31:01;6.03;;;4.78;;
11598;SDS011;5855;48.840;9.188;2023-05-07T04:33:29;4.88;;;4.28;;
11598;SDS011;5855;48.840;9.188;2023-05-07T04:35:56;4.45;;;4.05;;
11598;SDS011;5855;48.840;9.188;2023-05-07T04:38:27;6.88;;;4.82;;
11598;SDS011;5855;48.840;9.188;2023-05-07T04:40:54;4.82;;;4.22;;
11598;SDS011;5855;48.840;9.188;2023-05-07T04:43:21;4.68;;;4.22;;
11598;SDS011;5855;48.840;9.188;2023-05-07T04:45:49;6.15;;;4.68;;
11598;SDS011;5855;48.840;9.188;2023-05-07T04:48:16;4.40;;;4.00;;
11598;SDS011;5855;48.840;9.188;2023-05-07T04:50:45;4.85;;;4.07;;
11598;SDS011;5855;48.840;9.188;2023-05-07T04:53:14;5.07;;;4.35;;
11598;SDS011;5855;48.840;9.188;2023-05-07T04:55:41;5.78;;;4.50;;
11598;SDS011;5855;48.840;9.188;2023-05-07T04:58:08;4.55;;;4.10;;
11598;SDS011;5855;48.840;9.188;2023-05-07T05:00:35;5.03;;;4.53;;
11598;SDS011;5855;48.840;9.188;2023-05-07T05:03:01;8.00;;;4.47;;
11598;SDS011;5855;48.840;9.188;2023-05-07T05:05:28;4.63;;;4.07;;
11598;SDS011;5855;48.840;9.188;2023-05-07T05:07:56;4.60;;;4.20;;
11598;SDS011;5855;48.840;9.188;2023-05-07T05:10:23;4.35;;;3.95;;
11598;SDS011;5855;48.840;9.188;2023-05-07T05:12:50;5.78;;;4.28;;
11598;SDS011;5855;48.840;9.188;2023-05-07T05:15:17;4.70;;;4.10;;
11598;SDS011;5855;48.840;9.188;2023-05-07T05:17:44;4.90;;;4.20;;
11598;SDS011;5855;48.840;9.188;2023-05-07T05:20:11;5.78;;;4.18;;
11598;SDS011;5855;48.840;9.188;2023-05-07T05:22:38;5.97;;;4.70;;
11598;SDS011;5855;48.840;9.188;2023-05-07T05:25:06;4.60;;;4.20;;
11598;SDS011;5855;48.840;9.188;2023-05-07T05:27:33;4.78;;;4.18;;
11598;SDS011;5855;48.840;9.188;2023-05-07T05:30:00;4.65;;;3.85;;
11598;SDS011;5855;48.840;9.188;2023-05-07T05:32:27;4.55;;;4.05;;
11598;SDS011;5855;48.840;9.188;2023-05-07T05:34:54;5.60;;;3.63;;
11598;SDS011;5855;48.840;9.188;2023-05-07T05:37:21;3.47;;;3.17;;
11598;SDS011;5855;48.840;9.188;2023-05-07T05:39:48;4.07;;;3.40;;
11598;SDS011;5855;48.840;9.188;2023-05-07T05:42:16;3.75;;;3.40;;
11598;SDS011;5855;48.840;9.188;2023-05-07T05:44:43;3.70;;;3.40;;
11598;SDS011;5855;48.840;9.188;2023-05-07T05:47:10;3.40;;;3.10;;
11598;SDS011;5855;48.840;9.188;2023-05-07T05:49:37;4.30;;;3.90;;
11598;SDS011;5855;48.840;9.188;2023-05-07T05:52:04;5.25;;;3.55;;
11598;SDS011;5855;48.840;9.188;2023-05-07T05:54:30;4.18;;;3.75;;
11598;SDS011;5855;48.840;9.188;2023-05-07T05:56:57;4.28;;;3.80;;
11598;SDS011;5855;48.840;9.188;2023-05-07T05:59:25;4.65;;;3.80;;
11598;SDS011;5855;48.840;9.188;2023-05-07T06:01:52;3.95;;;3.55;;
11598;SDS011;5855;48.840;9.188;2023-05-07T06:04:19;3.60;;;3.30;;
11598;SDS011;5855;48.840;9.188;2023-05-07T06:06:46;5.22;;;3.30;;
11598;SDS011;5855;48.840;9.188;2023-05-07T06:09:12;5.45;;;3.00;;
11598;SDS011;5855;48.840;9.188;2023-05-07T06:11:39;3.42;;;3.05;;
11598;SDS011;5855;48.840;9.188;2023-05-07T06:14:06;3.40;;;3.10;;
11598;SDS011;5855;48.840;9.188;2023-05-07T06:16:34;3.10;;;2.80;;
11598;SDS011;5855;48.840;9.188;2023-05-07T06:19:03;3.28;;;2.90;;
11598;SDS011;5855;48.840;9.188;2023-05-07T06:21:30;3.22;;;2.92;;
11598;SDS011;5855;48.840;9.188;2023-05-07T06:23:57;3.22;;;2.92;;
11598;SDS011;5855;48.840;9.188;2023-05-07T06:26:23;2.92;;;2.60;;
11598;SDS011;5855;48.840;9.188;2023-05-07T06:28:50;5.20;;;3.00;;
11598;SDS011;5855;48.840;9.188;2023-05-07T06:31:18;3.58;;;3.03;;
11598;SDS011;5855;48.840;9.188;2023-05-07T06:33:48;3.20;;;2.90;;
11598;SDS011;5855;48.840;9.188;2023-05-07T06:36:15;3.47;;;3.17;;
11598;SDS011;5855;48.840;9.188;2023-05-07T06:38:42;3.85;;;3.00;;
11598;SDS011;5855;48.840;9.188;2023-05-07T06:41:09;3.17;;;2.85;;
11598;SDS011;5855;48.840;9.188;2023-05-07T06:43:36;3.33;;;3.03;;
11598;SDS011;5855;48.840;9.188;2023-05-07T06:46:02;4.82;;;2.88;;
11598;SDS011;5855;48.840;9.188;2023-05-07T06:48:30;4.75;;;2.70;;
11598;SDS011;5855;48.840;9.188;2023-05-07T06:50:58;3.28;;;2.75;;
11598;SDS011;5855;48.840;9.188;2023-05-07T06:53:25;2.70;;;2.50;;
11598;SDS011;5855;48.840;9.188;2023-05-07T06:55:53;4.43;;;2.97;;
11598;SDS011;5855;48.840;9.188;2023-05-07T06:58:20;2.78;;;2.55;;
11598;SDS011;5855;48.840;9.188;2023-05-07T07:00:47;3.90;;;2.63;;
11598;SDS011;5855;48.840;9.188;2023-05-07T07:03:13;5.00;;;2.67;;
11598;SDS011;5855;48.840;9.188;2023-05-07T07:05:40;3.63;;;2.42;;
11598;SDS011;5855;48.840;9.188;2023-05-07T07:08:09;3.50;;;2.53;;
11598;SDS011;5855;48.840;9.188;2023-05-07T07:10:36;4.60;;;2.72;;
11598;SDS011;5855;48.840;9.188;2023-05-07T07:13:03;3.83;;;2.67;;
11598;SDS011;5855;48.840;9.188;2023-05-07T07:15:30;2.95;;;2.40;;
11598;SDS011;5855;48.840;9.188;2023-05-07T07:17:56;4.05;;;3.03;;
11598;SDS011;5855;48.840;9.188;2023-05-07T07:20:23;4.05;;;3.30;;
11598;SDS011;5855;48.840;9.188;2023-05-07T07:22:50;3.25;;;2.72;;
11598;SDS011;5855;48.840;9.188;2023-05-07T07:25:18;3.80;;;2.60;;
11598;SDS011;5855;48.840;9.188;2023-05-07T07:27:45;3.75;;;2.90;;
11598;SDS011;5855;48.840;9.188;2023-05-07T07:30:12;4.53;;;2.90;;
11598;SDS011;5855;48.840;9.188;2023-05-07T07:32:39;4.30;;;2.72;;
11598;SDS011;5855;48.840;9.188;2023-05-07T07:35:06;4.45;;;3.35;;
11598;SDS011;5855;48.840;9.188;2023-05-07T07:37:33;4.00;;;3.00;;
11598;SDS011;5855;48.840;9.188;2023-05-07T07:40:00;4.53;;;2.88;;
11598;SDS011;5855;48.840;9.188;2023-05-07T07:42:29;3.40;;;2.53;;
11598;SDS011;5855;48.840;9.188;2023-05-07T07:44:56;2.90;;;2.70;;
11598;SDS011;5855;48.840;9.188;2023-05-07T07:47:23;4.07;;;3.10;;
11598;SDS011;5855;48.840;9.188;2023-05-07T07:49:50;2.80;;;2.60;;
11598;SDS011;5855;48.840;9.188;2023-05-07T07:52:18;3.75;;;2.30;;
11598;SDS011;5855;48.840;9.188;2023-05-07T07:54:45;2.75;;;2.42;;
11598;SDS011;5855;48.840;9.188;2023-05-07T07:57:11;3.72;;;2.70;;
11598;SDS011;5855;48.840;9.188;2023-05-07T07:59:40;3.35;;;2.50;;
11598;SDS011;5855;48.840;9.188;2023-05-07T08:02:08;4.30;;;2.50;;
11598;SDS011;5855;48.840;9.188;2023-05-07T08:04:35;2.70;;;2.50;;
11598;SDS011;5855;48.840;9.188;2023-05-07T08:07:02;2.88;;;2.50;;
11598;SDS011;5855;48.840;9.188;2023-05-07T08:09:29;2.53;;;2.30;;
11598;SDS011;5855;48.840;9.188;2023-05-07T08:11:56;3.95;;;2.28;;
11598;SDS011;5855;48.840;9.188;2023-05-07T08:14:23;3.50;;;2.30;;
11598;SDS011;5855;48.840;9.188;2023-05-07T08:16:51;4.32;;;2.72;;
11598;SDS011;5855;48.840;9.188;2023-05-07T08:19:18;4.05;;;2.47;;
11598;SDS011;5855;48.840;9.188;2023-05-07T08:21:46;2.97;;;2.47;;
11598;SDS011;5855;48.840;9.188;2023-05-07T08:24:14;2.40;;;2.13;;
11598;SDS011;5855;48.840;9.188;2023-05-07T08:26:41;2.58;;;2.38;;
11598;SDS011;5855;48.840;9.188;2023-05-07T08:29:08;3.20;;;2.30;;
11598;SDS011;5855;48.840;9.188;2023-05-07T08:31:35;3.35;;;2.42;;
11598;SDS011;5855;48.840;9.188;2023-05-07T08:34:05;5.30;;;2.30;;
11598;SDS011;5855;48.840;9.188;2023-05-07T08:36:31;5.68;;;2.50;;
11598;SDS011;5855;48.840;9.188;2023-05-07T08:38:58;3.95;;;2.22;;
11598;SDS011;5855;48.840;9.188;2023-05-07T08:41:26;4.50;;;2.50;;
11598;SDS011;5855;48.840;9.188;2023-05-07T08:43:52;3.58;;;2.60;;
11598;SDS011;5855;48.840;9.188;2023-05-07T08:46:23;2.75;;;2.55;;
11598;SDS011;5855;48.840;9.188;2023-05-07T08:48:51;3.97;;;2.63;;
11598;SDS011;5855;48.840;9.188;2023-05-07T08:51:23;2.95;;;2.53;;
11598;SDS011;5855;48.840;9.188;2023-05-07T08:53:50;2.97;;;2.72;;
11598;SDS011;5855;48.840;9.188;2023-05-07T08:56:17;3.33;;;2.55;;
11598;SDS011;5855;48.840;9.188;2023-05-07T08:58:45;3.80;;;2.20;;
11598;SDS011;5855;48.840;9.188;2023-05-07T09:01:13;3.10;;;2.08;;
11598;SDS011;5855;48.840;9.188;2023-05-07T09:03:41;2.63;;;2.42;;
11598;SDS011;5855;48.840;9.188;2023-05-07T09:06:10;3.17;;;2.50;;
11598;SDS011;5855;48.840;9.188;2023-05-07T09:08:39;4.90;;;2.10;;
11598;SDS011;5855;48.840;9.188;2023-05-07T09:11:05;2.55;;;2.30;;
11598;SDS011;5855;48.840;9.188;2023-05-07T09:13:32;2.63;;;1.90;;
11598;SDS011;5855;48.840;9.188;2023-05-07T09:16:06;2.25;;;1.83;;
11598;SDS011;5855;48.840;9.188;2023-05-07T09:18:43;2.65;;;2.10;;
11598;SDS011;5855;48.840;9.188;2023-05-07T09:21:14;4.72;;;2.28;;
11598;SDS011;5855;48.840;9.188;2023-05-07T09:23:44;4.75;;;2.00;;
11598;SDS011;5855;48.840;9.188;2023-05-07T09:26:11;2.60;;;2.03;;
11598;SDS011;5855;48.840;9.188;2023-05-07T09:28:38;3.47;;;1.55;;
11598;SDS011;5855;48.840;9.188;2023-05-07T09:31:07;3.67;;;1.92;;
11598;SDS011;5855;48.840;9.188;2023-05-07T09:33:34;3.40;;;1.95;;
11598;SDS011;5855;48.840;9.188;2023-05-07T09:36:04;2.97;;;1.73;;
11598;SDS011;5855;48.840;9.188;2023-05-07T09:38:34;2.30;;;1.70;;
11598;SDS011;5855;48.840;9.188;2023-05-07T09:41:04;1.83;;;1.73;;
11598;SDS011;5855;48.840;9.188;2023-05-07T09:43:32;2.30;;;1.58;;
11598;SDS011;5855;48.840;9.188;2023-05-07T09:46:03;2.20;;;1.80;;
11598;SDS011;5855;48.840;9.188;2023-05-07T09:48:41;4.95;;;1.67;;
11598;SDS011;5855;48.840;9.188;2023-05-07T09:51:14;1.95;;;1.42;;
11598;SDS011;5855;48.840;9.188;2023-05-07T09:53:47;1.75;;;1.35;;
11598;SDS011;5855;48.840;9.188;2023-05-07T09:56:18;2.67;;;1.58;;
11598;SDS011;5855;48.840;9.188;2023-05-07T09:58:46;1.83;;;1.50;;
11598;SDS011;5855;48.840;9.188;2023-05-07T10:01:15;2.15;;;1.45;;
11598;SDS011;5855;48.840;9.188;2023-05-07T10:03:44;2.15;;;1.50;;
11598;SDS011;5855;48.840;9.188;2023-05-07T10:06:12;3.42;;;1.60;;
11598;SDS011;5855;48.840;9.188;2023-05-07T10:08:40;1.83;;;1.58;;
11598;SDS011;5855;48.840;9.188;2023-05-07T10:11:09;2.55;;;1.80;;
11598;SDS011;5855;48.840;9.188;2023-05-07T10:13:38;3.17;;;1.60;;
11598;SDS011;5855;48.840;9.188;2023-05-07T10:16:08;1.45;;;1.35;;
11598;SDS011;5855;48.840;9.188;2023-05-07T10:18:35;1.90;;;1.40;;
11598;SDS011;5855;48.840;9.188;2023-05-07T10:21:07;4.22;;;1.60;;
11598;SDS011;5855;48.840;9.188;2023-05-07T10:23:35;1.75;;;1.30;;
11598;SDS011;5855;48.840;9.188;2023-05-07T10:26:03;1.92;;;1.42;;
11598;SDS011;5855;48.840;9.188;2023-05-07T10:28:34;1.90;;;1.50;;
11598;SDS011;5855;48.840;9.188;2023-05-07T10:31:11;2.65;;;1.30;;
11598;SDS011;5855;48.840;9.188;2023-05-07T10:34:00;2.08;;;1.20;;
11598;SDS011;5855;48.840;9.188;2023-05-07T10:36:28;1.52;;;1.40;;
11598;SDS011;5855;48.840;9.188;2023-05-07T10:38:56;1.30;;;1.20;;
11598;SDS011;5855;48.840;9.188;2023-05-07T10:41:22;1.63;;;1.30;;
11598;SDS011;5855;48.840;9.188;2023-05-07T10:43:51;2.42;;;1.38;;
11598;SDS011;5855;48.840;9.188;2023-05-07T10:46:18;3.50;;;1.50;;
11598;SDS011;5855;48.840;9.188;2023-05-07T10:51:36;1.70;;;1.60;;
11598;SDS011;5855;48.840;9.188;2023-05-07T10:54:23;1.88;;;1.70;;
11598;SDS011;5855;48.840;9.188;2023-05-07T10:56:49;2.22;;;1.30;;
11598;SDS011;5855;48.840;9.188;2023-05-07T10:59:37;3.28;;;1.38;;
11598;SDS011;5855;48.840;9.188;2023-05-07T11:02:08;2.75;;;1.40;;
11598;SDS011;5855;48.840;9.188;2023-05-07T11:04:36;2.15;;;1.40;;
11598;SDS011;5855;48.840;9.188;2023-05-07T11:07:21;1.40;;;1.30;;
11598;SDS011;5855;48.840;9.188;2023-05-07T11:09:55;1.42;;;1.33;;
11598;SDS011;5855;48.840;9.188;2023-05-07T11:12:51;1.52;;;1.10;;
11598;SDS011;5855;48.840;9.188;2023-05-07T11:15:36;2.15;;;1.30;;
11598;SDS011;5855;48.840;9.188;2023-05-07T11:18:08;2.38;;;1.50;;
11598;SDS011;5855;48.840;9.188;2023-05-07T11:26:41;1.80;;;1.20;;
11598;SDS011;5855;48.840;9.188;2023-05-07T11:29:13;1.48;;;1.15;;
11598;SDS011;5855;48.840;9.188;2023-05-07T11:31:42;3.03;;;1.52;;
11598;SDS011;5855;48.840;9.188;2023-05-07T11:34:09;1.40;;;1.30;;
11598;SDS011;5855;48.840;9.188;2023-05-07T11:36:41;2.25;;;1.42;;
11598;SDS011;5855;48.840;9.188;2023-05-07T11:39:26;3.80;;;1.60;;
11598;SDS011;5855;48.840;9.188;2023-05-07T11:41:53;2.03;;;1.60;;
11598;SDS011;5855;48.840;9.188;2023-05-07T11:44:20;1.50;;;1.30;;
11598;SDS011;5855;48.840;9.188;2023-05-07T11:46:49;3.92;;;1.58;;
11598;SDS011;5855;48.840;9.188;2023-05-07T11:49:16;3.95;;;2.55;;
11598;SDS011;5855;48.840;9.188;2023-05-07T11:51:44;3.13;;;1.60;;
11598;SDS011;5855;48.840;9.188;2023-05-07T11:54:11;1.35;;;1.25;;
11598;SDS011;5855;48.840;9.188;2023-05-07T11:56:43;1.63;;;1.40;;
11598;SDS011;5855;48.840;9.188;2023-05-07T11:59:11;4.18;;;1.45;;
11598;SDS011;5855;48.840;9.188;2023-05-07T12:01:37;2.22;;;1.27;;
11598;SDS011;5855;48.840;9.188;2023-05-07T12:04:06;1.60;;;1.50;;
11598;SDS011;5855;48.840;9.188;2023-05-07T12:06:36;1.42;;;1.33;;
11598;SDS011;5855;48.840;9.188;2023-05-07T12:09:04;2.53;;;1.45;;
11598;SDS011;5855;48.840;9.188;2023-05-07T12:11:32;2.28;;;1.60;;
11598;SDS011;5855;48.840;9.188;2023-05-07T12:14:00;3.47;;;1.55;;
11598;SDS011;5855;48.840;9.188;2023-05-07T12:16:28;2.22;;;1.48;;
11598;SDS011;5855;48.840;9.188;2023-05-07T12:18:56;1.75;;;1.50;;
11598;SDS011;5855;48.840;9.188;2023-05-07T12:21:26;2.75;;;1.45;;
11598;SDS011;5855;48.840;9.188;2023-05-07T12:23:53;1.45;;;1.35;;
11598;SDS011;5855;48.840;9.188;2023-05-07T12:26:20;4.45;;;1.70;;
11598;SDS011;5855;48.840;9.188;2023-05-07T12:28:47;1.83;;;1.52;;
11598;SDS011;5855;48.840;9.188;2023-05-07T12:31:14;2.45;;;1.52;;
11598;SDS011;5855;48.840;9.188;2023-05-07T12:33:41;3.42;;;2.10;;
11598;SDS011;5855;48.840;9.188;2023-05-07T12:36:09;3.40;;;2.95;;
11598;SDS011;5855;48.840;9.188;2023-05-07T12:38:40;3.03;;;2.40;;
11598;SDS011;5855;48.840;9.188;2023-05-07T12:41:08;3.03;;;1.98;;
11598;SDS011;5855;48.840;9.188;2023-05-07T12:43:37;2.10;;;1.67;;
11598;SDS011;5855;48.840;9.188;2023-05-07T12:46:05;1.77;;;1.60;;
11598;SDS011;5855;48.840;9.188;2023-05-07T12:48:33;3.17;;;1.65;;
11598;SDS011;5855;48.840;9.188;2023-05-07T12:51:05;2.47;;;1.90;;
11598;SDS011;5855;48.840;9.188;2023-05-07T12:53:39;3.38;;;2.17;;
11598;SDS011;5855;48.840;9.188;2023-05-07T12:56:08;3.97;;;2.22;;
11598;SDS011;5855;48.840;9.188;2023-05-07T12:58:35;3.33;;;2.83;;
11598;SDS011;5855;48.840;9.188;2023-05-07T13:01:04;5.78;;;2.80;;
11598;SDS011;5855;48.840;9.188;2023-05-07T13:03:33;7.00;;;3.35;;
11598;SDS011;5855;48.840;9.188;2023-05-07T13:06:02;7.60;;;3.72;;
11598;SDS011;5855;48.840;9.188;2023-05-07T13:08:31;4.10;;;3.30;;
11598;SDS011;5855;48.840;9.188;2023-05-07T13:11:01;5.47;;;3.10;;
11598;SDS011;5855;48.840;9.188;2023-05-07T13:13:29;3.08;;;2.58;;
11598;SDS011;5855;48.840;9.188;2023-05-07T13:15:56;3.65;;;2.35;;
11598;SDS011;5855;48.840;9.188;2023-05-07T13:18:24;4.43;;;2.10;;
11598;SDS011;5855;48.840;9.188;2023-05-07T13:20:51;2.13;;;1.92;;
11598;SDS011;5855;48.840;9.188;2023-05-07T13:23:18;3.42;;;2.60;;
11598;SDS011;5855;48.840;9.188;2023-05-07T13:25:45;4.70;;;1.52;;
11598;SDS011;5855;48.840;9.188;2023-05-07T13:28:13;2.08;;;1.85;;
11598;SDS011;5855;48.840;9.188;2023-05-07T13:30:40;2.78;;;1.70;;
11598;SDS011;5855;48.840;9.188;2023-05-07T13:33:07;5.63;;;2.55;;
11598;SDS011;5855;48.840;9.188;2023-05-07T13:35:33;3.47;;;1.65;;
11598;SDS011;5855;48.840;9.188;2023-05-07T13:38:00;4.22;;;2.80;;
11598;SDS011;5855;48.840;9.188;2023-05-07T13:40:27;3.50;;;1.85;;
11598;SDS011;5855;48.840;9.188;2023-05-07T13:42:56;6.07;;;3.13;;
11598;SDS011;5855;48.840;9.188;2023-05-07T13:45:24;4.55;;;2.10;;
11598;SDS011;5855;48.840;9.188;2023-05-07T13:47:51;2.70;;;2.33;;
11598;SDS011;5855;48.840;9.188;2023-05-07T13:50:18;4.78;;;2.50;;
11598;SDS011;5855;48.840;9.188;2023-05-07T13:52:45;3.05;;;2.15;;
11598;SDS011;5855;48.840;9.188;2023-05-07T13:55:15;5.30;;;2.63;;
11598;SDS011;5855;48.840;9.188;2023-05-07T13:57:42;4.85;;;1.67;;
11598;SDS011;5855;48.840;9.188;2023-05-07T14:00:10;4.38;;;1.58;;
11598;SDS011;5855;48.840;9.188;2023-05-07T14:02:39;3.83;;;2.05;;
11598;SDS011;5855;48.840;9.188;2023-05-07T14:05:06;1.95;;;1.52;;
11598;SDS011;5855;48.840;9.188;2023-05-07T14:07:34;2.70;;;1.30;;
11598;SDS011;5855;48.840;9.188;2023-05-07T14:10:01;1.80;;;1.02;;
11598;SDS011;5855;48.840;9.188;2023-05-07T14:12:28;1.20;;;1.10;;
11598;SDS011;5855;48.840;9.188;2023-05-07T14:14:54;2.55;;;1.60;;
11598;SDS011;5855;48.840;9.188;2023-05-07T14:17:21;3.05;;;1.38;;
11598;SDS011;5855;48.840;9.188;2023-05-07T14:19:51;2.47;;;1.40;;
11598;SDS011;5855;48.840;9.188;2023-05-07T14:22:20;3.42;;;1.60;;
11598;SDS011;5855;48.840;9.188;2023-05-07T14:24:46;1.70;;;1.60;;
11598;SDS011;5855;48.840;9.188;2023-05-07T14:27:13;1.60;;;1.50;;
11598;SDS011;5855;48.840;9.188;2023-05-07T14:29:40;1.60;;;1.50;;
11598;SDS011;5855;48.840;9.188;2023-05-07T14:32:15;3.63;;;1.55;;
11598;SDS011;5855;48.840;9.188;2023-05-07T14:34:43;3.55;;;1.80;;
11598;SDS011;5855;48.840;9.188;2023-05-07T14:37:11;3.35;;;1.90;;
11598;SDS011;5855;48.840;9.188;2023-05-07T14:39:39;3.67;;;2.00;;
11598;SDS011;5855;48.840;9.188;2023-05-07T14:42:07;7.07;;;2.00;;
11598;SDS011;5855;48.840;9.188;2023-05-07T14:44:37;3.53;;;2.10;;
11598;SDS011;5855;48.840;9.188;2023-05-07T14:47:05;2.88;;;2.08;;
11598;SDS011;5855;48.840;9.188;2023-05-07T14:49:32;2.40;;;1.85;;
11598;SDS011;5855;48.840;9.188;2023-05-07T14:51:59;4.50;;;2.20;;
11598;SDS011;5855;48.840;9.188;2023-05-07T14:54:27;3.47;;;1.90;;
11598;SDS011;5855;48.840;9.188;2023-05-07T14:56:54;3.85;;;2.10;;
11598;SDS011;5855;48.840;9.188;2023-05-07T14:59:21;4.45;;;1.80;;
11598;SDS011;5855;48.840;9.188;2023-05-07T15:01:50;2.75;;;2.00;;
11598;SDS011;5855;48.840;9.188;2023-05-07T15:04:17;2.92;;;1.90;;
11598;SDS011;5855;48.840;9.188;2023-05-07T15:06:44;2.95;;;1.85;;
11598;SDS011;5855;48.840;9.188;2023-05-07T15:09:11;3.72;;;2.40;;
11598;SDS011;5855;48.840;9.188;2023-05-07T15:11:39;4.53;;;2.70;;
11598;SDS011;5855;48.840;9.188;2023-05-07T15:14:06;3.10;;;2.40;;